sensor_id;sensor_type;location;lat;lon;timestamp;temperature;humidity
81842;DHT22;71284;50.918;7.092;2024-02-23T00:02:00;9.20;52.10
81842;DHT22;71284;50.918;7.092;2024-02-23T00:04:26;9.50;52.40
81842;DHT22;71284;50.918;7.092;2024-02-23T00:06:53;9.70;51.70
81842;DHT22;71284;50.918;7.092;2024-02-23T00:09:20;9.50;52.70
81842;DHT22;71284;50.918;7.092;2024-02-23T00:11:46;9.70;52.70
81842;DHT22;71284;50.918;7.092;2024-02-23T00:14:13;9.60;52.30
81842;DHT22;71284;50.918;7.092;2024-02-23T00:16:40;9.70;52.50
81842;DHT22;71284;50.918;7.092;2024-02-23T00:19:09;9.50;52.80
81842;DHT22;71284;50.918;7.092;2024-02-23T00:21:37;9.40;53.30
81842;DHT22;71284;50.918;7.092;2024-02-23T00:24:03;9.20;53.90
81842;DHT22;71284;50.918;7.092;2024-02-23T00:26:30;9.20;53.50
81842;DHT22;71284;50.918;7.092;2024-02-23T00:28:57;9.20;54.10
81842;DHT22;71284;50.918;7.092;2024-02-23T00:31:23;9.20;53.70
81842;DHT22;71284;50.918;7.092;2024-02-23T00:33:50;9.30;54.00
81842;DHT22;71284;50.918;7.092;2024-02-23T00:36:16;9.30;54.00
81842;DHT22;71284;50.918;7.092;2024-02-23T00:38:43;9.20;54.60
81842;DHT22;71284;50.918;7.092;2024-02-23T00:41:10;9.40;54.00
81842;DHT22;71284;50.918;7.092;2024-02-23T00:43:38;9.60;53.50
81842;DHT22;71284;50.918;7.092;2024-02-23T00:46:03;9.60;53.80
81842;DHT22;71284;50.918;7.092;2024-02-23T00:48:30;9.50;53.70
81842;DHT22;71284;50.918;7.092;2024-02-23T00:50:57;9.40;54.30
81842;DHT22;71284;50.918;7.092;2024-02-23T00:53:23;9.40;54.10
81842;DHT22;71284;50.918;7.092;2024-02-23T00:55:50;9.40;53.30
81842;DHT22;71284;50.918;7.092;2024-02-23T00:58:16;9.40;52.90
81842;DHT22;71284;50.918;7.092;2024-02-23T01:00:43;9.30;52.70
81842;DHT22;71284;50.918;7.092;2024-02-23T01:03:10;9.10;53.30
81842;DHT22;71284;50.918;7.092;2024-02-23T01:05:36;9.10;53.10
81842;DHT22;71284;50.918;7.092;2024-02-23T01:08:03;9.20;52.60
81842;DHT22;71284;50.918;7.092;2024-02-23T01:10:29;9.10;52.80
81842;DHT22;71284;50.918;7.092;2024-02-23T01:12:56;8.90;53.00
81842;DHT22;71284;50.918;7.092;2024-02-23T01:15:23;9.00;52.80
81842;DHT22;71284;50.918;7.092;2024-02-23T01:17:49;9.00;52.30
81842;DHT22;71284;50.918;7.092;2024-02-23T01:20:16;9.00;52.40
81842;DHT22;71284;50.918;7.092;2024-02-23T01:22:43;9.00;52.20
81842;DHT22;71284;50.918;7.092;2024-02-23T01:25:09;8.90;52.60
81842;DHT22;71284;50.918;7.092;2024-02-23T01:27:36;9.00;52.20
81842;DHT22;71284;50.918;7.092;2024-02-23T01:30:02;9.10;52.00
81842;DHT22;71284;50.918;7.092;2024-02-23T01:32:29;8.90;52.20
81842;DHT22;71284;50.918;7.092;2024-02-23T01:34:55;8.90;51.90
81842;DHT22;71284;50.918;7.092;2024-02-23T01:37:22;9.00;52.20
81842;DHT22;71284;50.918;7.092;2024-02-23T01:39:49;9.00;51.20
81842;DHT22;71284;50.918;7.092;2024-02-23T01:42:15;9.10;51.50
81842;DHT22;71284;50.918;7.092;2024-02-23T01:44:42;9.10;51.20
81842;DHT22;71284;50.918;7.092;2024-02-23T01:47:08;9.20;51.10
81842;DHT22;71284;50.918;7.092;2024-02-23T01:49:35;9.10;50.40
81842;DHT22;71284;50.918;7.092;2024-02-23T01:52:02;8.90;51.10
81842;DHT22;71284;50.918;7.092;2024-02-23T01:54:28;9.00;51.00
81842;DHT22;71284;50.918;7.092;2024-02-23T01:56:55;9.00;50.90
81842;DHT22;71284;50.918;7.092;2024-02-23T01:59:21;8.90;51.00
81842;DHT22;71284;50.918;7.092;2024-02-23T02:01:48;8.90;50.90
81842;DHT22;71284;50.918;7.092;2024-02-23T02:04:15;8.90;51.00
81842;DHT22;71284;50.918;7.092;2024-02-23T02:06:41;9.00;50.40
81842;DHT22;71284;50.918;7.092;2024-02-23T02:09:08;9.10;50.50
81842;DHT22;71284;50.918;7.092;2024-02-23T02:11:34;9.00;51.20
81842;DHT22;71284;50.918;7.092;2024-02-23T02:14:01;9.20;50.90
81842;DHT22;71284;50.918;7.092;2024-02-23T02:16:27;9.20;51.20
81842;DHT22;71284;50.918;7.092;2024-02-23T02:18:54;9.00;51.60
81842;DHT22;71284;50.918;7.092;2024-02-23T02:21:21;9.10;51.10
81842;DHT22;71284;50.918;7.092;2024-02-23T02:23:47;9.10;51.10
81842;DHT22;71284;50.918;7.092;2024-02-23T02:26:14;9.10;51.10
81842;DHT22;71284;50.918;7.092;2024-02-23T02:28:40;9.00;50.90
81842;DHT22;71284;50.918;7.092;2024-02-23T02:31:07;8.80;51.70
81842;DHT22;71284;50.918;7.092;2024-02-23T02:33:34;8.90;50.90
81842;DHT22;71284;50.918;7.092;2024-02-23T02:36:00;9.00;50.50
81842;DHT22;71284;50.918;7.092;2024-02-23T02:38:27;9.10;50.60
81842;DHT22;71284;50.918;7.092;2024-02-23T02:40:53;8.90;49.90
81842;DHT22;71284;50.918;7.092;2024-02-23T02:43:20;8.90;51.30
81842;DHT22;71284;50.918;7.092;2024-02-23T02:45:47;8.80;51.50
81842;DHT22;71284;50.918;7.092;2024-02-23T02:48:14;8.90;50.70
81842;DHT22;71284;50.918;7.092;2024-02-23T02:50:41;8.80;51.70
81842;DHT22;71284;50.918;7.092;2024-02-23T02:53:07;8.60;51.10
81842;DHT22;71284;50.918;7.092;2024-02-23T02:55:34;8.50;51.30
81842;DHT22;71284;50.918;7.092;2024-02-23T02:58:00;8.60;50.90
81842;DHT22;71284;50.918;7.092;2024-02-23T03:00:27;8.60;50.50
81842;DHT22;71284;50.918;7.092;2024-02-23T03:02:54;8.70;50.20
81842;DHT22;71284;50.918;7.092;2024-02-23T03:05:20;8.70;50.00
81842;DHT22;71284;50.918;7.092;2024-02-23T03:07:47;8.70;49.90
81842;DHT22;71284;50.918;7.092;2024-02-23T03:10:13;8.60;50.80
81842;DHT22;71284;50.918;7.092;2024-02-23T03:12:40;8.70;50.80
81842;DHT22;71284;50.918;7.092;2024-02-23T03:15:07;8.70;49.60
81842;DHT22;71284;50.918;7.092;2024-02-23T03:17:33;8.60;49.90
81842;DHT22;71284;50.918;7.092;2024-02-23T03:20:01;8.70;49.70
81842;DHT22;71284;50.918;7.092;2024-02-23T03:22:27;8.70;49.40
81842;DHT22;71284;50.918;7.092;2024-02-23T03:24:54;8.80;49.00
81842;DHT22;71284;50.918;7.092;2024-02-23T03:27:21;8.80;49.30
81842;DHT22;71284;50.918;7.092;2024-02-23T03:29:47;8.80;49.40
81842;DHT22;71284;50.918;7.092;2024-02-23T03:32:14;8.70;49.50
81842;DHT22;71284;50.918;7.092;2024-02-23T03:34:40;8.60;49.30
81842;DHT22;71284;50.918;7.092;2024-02-23T03:37:07;8.60;49.60
81842;DHT22;71284;50.918;7.092;2024-02-23T03:39:33;8.60;49.30
81842;DHT22;71284;50.918;7.092;2024-02-23T03:42:00;8.60;49.70
81842;DHT22;71284;50.918;7.092;2024-02-23T03:44:26;8.60;49.60
81842;DHT22;71284;50.918;7.092;2024-02-23T03:46:53;8.60;49.40
81842;DHT22;71284;50.918;7.092;2024-02-23T03:49:20;8.60;49.70
81842;DHT22;71284;50.918;7.092;2024-02-23T03:51:47;8.50;50.10
81842;DHT22;71284;50.918;7.092;2024-02-23T03:54:13;8.40;49.70
81842;DHT22;71284;50.918;7.092;2024-02-23T03:56:40;8.40;49.60
81842;DHT22;71284;50.918;7.092;2024-02-23T03:59:08;8.40;49.80
81842;DHT22;71284;50.918;7.092;2024-02-23T04:01:36;8.40;50.10
81842;DHT22;71284;50.918;7.092;2024-02-23T04:04:02;8.40;49.50
81842;DHT22;71284;50.918;7.092;2024-02-23T04:06:28;8.50;49.40
81842;DHT22;71284;50.918;7.092;2024-02-23T04:08:55;8.50;49.50
81842;DHT22;71284;50.918;7.092;2024-02-23T04:11:21;8.40;49.10
81842;DHT22;71284;50.918;7.092;2024-02-23T04:13:48;8.30;50.20
81842;DHT22;71284;50.918;7.092;2024-02-23T04:16:14;8.40;49.80
81842;DHT22;71284;50.918;7.092;2024-02-23T04:18:41;8.30;50.40
81842;DHT22;71284;50.918;7.092;2024-02-23T04:21:08;8.30;50.20
81842;DHT22;71284;50.918;7.092;2024-02-23T04:23:34;8.30;50.00
81842;DHT22;71284;50.918;7.092;2024-02-23T04:26:01;8.40;50.00
81842;DHT22;71284;50.918;7.092;2024-02-23T04:28:27;8.50;49.50
81842;DHT22;71284;50.918;7.092;2024-02-23T04:30:54;8.70;49.10
81842;DHT22;71284;50.918;7.092;2024-02-23T04:33:21;8.50;48.80
81842;DHT22;71284;50.918;7.092;2024-02-23T04:35:47;8.50;49.40
81842;DHT22;71284;50.918;7.092;2024-02-23T04:38:14;8.70;49.10
81842;DHT22;71284;50.918;7.092;2024-02-23T04:40:40;8.80;48.50
81842;DHT22;71284;50.918;7.092;2024-02-23T04:43:07;8.80;48.60
81842;DHT22;71284;50.918;7.092;2024-02-23T04:45:33;8.80;48.70
81842;DHT22;71284;50.918;7.092;2024-02-23T04:48:00;8.70;49.60
81842;DHT22;71284;50.918;7.092;2024-02-23T04:50:27;8.60;48.80
81842;DHT22;71284;50.918;7.092;2024-02-23T04:52:53;8.40;49.70
81842;DHT22;71284;50.918;7.092;2024-02-23T04:55:20;8.60;49.00
81842;DHT22;71284;50.918;7.092;2024-02-23T04:57:46;8.70;48.50
81842;DHT22;71284;50.918;7.092;2024-02-23T05:00:13;8.70;48.50
81842;DHT22;71284;50.918;7.092;2024-02-23T05:02:40;8.70;48.50
81842;DHT22;71284;50.918;7.092;2024-02-23T05:05:07;8.70;48.70
81842;DHT22;71284;50.918;7.092;2024-02-23T05:07:34;8.70;48.80
81842;DHT22;71284;50.918;7.092;2024-02-23T05:10:00;8.80;48.40
81842;DHT22;71284;50.918;7.092;2024-02-23T05:12:27;8.80;48.30
81842;DHT22;71284;50.918;7.092;2024-02-23T05:14:53;8.60;49.20
81842;DHT22;71284;50.918;7.092;2024-02-23T05:17:20;8.60;49.60
81842;DHT22;71284;50.918;7.092;2024-02-23T05:19:47;8.70;49.40
81842;DHT22;71284;50.918;7.092;2024-02-23T05:22:13;8.60;49.60
81842;DHT22;71284;50.918;7.092;2024-02-23T05:24:40;8.60;49.50
81842;DHT22;71284;50.918;7.092;2024-02-23T05:27:06;8.70;49.40
81842;DHT22;71284;50.918;7.092;2024-02-23T05:29:33;8.80;49.10
81842;DHT22;71284;50.918;7.092;2024-02-23T05:32:00;8.90;48.80
81842;DHT22;71284;50.918;7.092;2024-02-23T05:34:26;8.90;48.80
81842;DHT22;71284;50.918;7.092;2024-02-23T05:36:53;9.00;48.80
81842;DHT22;71284;50.918;7.092;2024-02-23T05:39:19;8.90;49.00
81842;DHT22;71284;50.918;7.092;2024-02-23T05:41:46;8.90;49.40
81842;DHT22;71284;50.918;7.092;2024-02-23T05:44:13;8.80;48.70
81842;DHT22;71284;50.918;7.092;2024-02-23T05:46:39;8.80;49.10
81842;DHT22;71284;50.918;7.092;2024-02-23T05:49:06;8.80;49.00
81842;DHT22;71284;50.918;7.092;2024-02-23T05:51:32;8.80;48.80
81842;DHT22;71284;50.918;7.092;2024-02-23T05:53:59;8.80;49.00
81842;DHT22;71284;50.918;7.092;2024-02-23T05:56:25;8.70;49.90
81842;DHT22;71284;50.918;7.092;2024-02-23T05:58:52;8.60;49.50
81842;DHT22;71284;50.918;7.092;2024-02-23T06:01:19;8.50;50.60
81842;DHT22;71284;50.918;7.092;2024-02-23T06:03:45;8.60;49.90
81842;DHT22;71284;50.918;7.092;2024-02-23T06:06:12;8.60;49.70
81842;DHT22;71284;50.918;7.092;2024-02-23T06:08:38;8.60;50.20
81842;DHT22;71284;50.918;7.092;2024-02-23T06:11:05;8.60;49.40
81842;DHT22;71284;50.918;7.092;2024-02-23T06:13:32;8.60;49.60
81842;DHT22;71284;50.918;7.092;2024-02-23T06:15:59;8.50;49.40
81842;DHT22;71284;50.918;7.092;2024-02-23T06:18:25;8.50;49.00
81842;DHT22;71284;50.918;7.092;2024-02-23T06:20:51;8.20;51.00
81842;DHT22;71284;50.918;7.092;2024-02-23T06:23:18;8.20;50.20
81842;DHT22;71284;50.918;7.092;2024-02-23T06:25:44;8.20;50.80
81842;DHT22;71284;50.918;7.092;2024-02-23T06:28:11;8.10;51.60
81842;DHT22;71284;50.918;7.092;2024-02-23T06:30:38;8.00;51.80
81842;DHT22;71284;50.918;7.092;2024-02-23T06:33:05;7.80;52.00
81842;DHT22;71284;50.918;7.092;2024-02-23T06:35:31;7.80;52.20
81842;DHT22;71284;50.918;7.092;2024-02-23T06:37:57;7.90;52.40
81842;DHT22;71284;50.918;7.092;2024-02-23T06:40:24;7.90;52.10
81842;DHT22;71284;50.918;7.092;2024-02-23T06:42:51;8.00;51.30
81842;DHT22;71284;50.918;7.092;2024-02-23T06:45:17;8.10;51.40
81842;DHT22;71284;50.918;7.092;2024-02-23T06:47:44;7.90;51.90
81842;DHT22;71284;50.918;7.092;2024-02-23T06:50:10;7.70;52.40
81842;DHT22;71284;50.918;7.092;2024-02-23T06:52:37;7.80;52.70
81842;DHT22;71284;50.918;7.092;2024-02-23T06:55:04;7.60;52.60
81842;DHT22;71284;50.918;7.092;2024-02-23T06:57:31;7.80;52.80
81842;DHT22;71284;50.918;7.092;2024-02-23T06:59:57;7.70;51.90
81842;DHT22;71284;50.918;7.092;2024-02-23T07:02:24;7.70;52.80
81842;DHT22;71284;50.918;7.092;2024-02-23T07:04:50;7.90;52.10
81842;DHT22;71284;50.918;7.092;2024-02-23T07:07:17;7.60;52.90
81842;DHT22;71284;50.918;7.092;2024-02-23T07:09:43;7.60;52.90
81842;DHT22;71284;50.918;7.092;2024-02-23T07:12:10;7.70;53.80
81842;DHT22;71284;50.918;7.092;2024-02-23T07:14:37;7.80;52.10
81842;DHT22;71284;50.918;7.092;2024-02-23T07:17:04;7.80;52.70
81842;DHT22;71284;50.918;7.092;2024-02-23T07:19:34;7.80;52.50
81842;DHT22;71284;50.918;7.092;2024-02-23T07:22:01;7.90;52.70
81842;DHT22;71284;50.918;7.092;2024-02-23T07:24:27;8.10;52.20
81842;DHT22;71284;50.918;7.092;2024-02-23T07:26:54;8.20;52.70
81842;DHT22;71284;50.918;7.092;2024-02-23T07:29:21;8.50;50.80
81842;DHT22;71284;50.918;7.092;2024-02-23T07:31:47;8.70;50.00
81842;DHT22;71284;50.918;7.092;2024-02-23T07:34:14;9.00;49.40
81842;DHT22;71284;50.918;7.092;2024-02-23T07:36:40;9.00;48.90
81842;DHT22;71284;50.918;7.092;2024-02-23T07:39:07;8.90;48.90
81842;DHT22;71284;50.918;7.092;2024-02-23T07:41:34;8.90;49.40
81842;DHT22;71284;50.918;7.092;2024-02-23T07:44:00;9.00;48.80
81842;DHT22;71284;50.918;7.092;2024-02-23T07:46:27;9.00;48.50
81842;DHT22;71284;50.918;7.092;2024-02-23T07:48:53;9.00;48.70
81842;DHT22;71284;50.918;7.092;2024-02-23T07:51:20;9.00;48.30
81842;DHT22;71284;50.918;7.092;2024-02-23T07:53:46;8.90;48.50
81842;DHT22;71284;50.918;7.092;2024-02-23T07:56:13;9.00;48.80
81842;DHT22;71284;50.918;7.092;2024-02-23T07:58:40;9.10;48.50
81842;DHT22;71284;50.918;7.092;2024-02-23T08:01:16;9.10;48.60
81842;DHT22;71284;50.918;7.092;2024-02-23T08:03:43;9.10;48.20
81842;DHT22;71284;50.918;7.092;2024-02-23T08:06:09;9.20;47.90
81842;DHT22;71284;50.918;7.092;2024-02-23T08:08:36;9.30;47.70
81842;DHT22;71284;50.918;7.092;2024-02-23T08:11:02;9.40;47.50
81842;DHT22;71284;50.918;7.092;2024-02-23T08:13:29;9.50;46.90
81842;DHT22;71284;50.918;7.092;2024-02-23T08:15:56;9.60;47.40
81842;DHT22;71284;50.918;7.092;2024-02-23T08:18:22;9.60;47.30
81842;DHT22;71284;50.918;7.092;2024-02-23T08:20:49;9.70;47.00
81842;DHT22;71284;50.918;7.092;2024-02-23T08:23:15;9.90;46.60
81842;DHT22;71284;50.918;7.092;2024-02-23T08:25:42;9.90;46.50
81842;DHT22;71284;50.918;7.092;2024-02-23T08:28:08;10.00;46.20
81842;DHT22;71284;50.918;7.092;2024-02-23T08:30:35;9.80;46.50
81842;DHT22;71284;50.918;7.092;2024-02-23T08:33:02;9.70;46.70
81842;DHT22;71284;50.918;7.092;2024-02-23T08:35:28;9.90;46.60
81842;DHT22;71284;50.918;7.092;2024-02-23T08:37:55;10.00;46.00
81842;DHT22;71284;50.918;7.092;2024-02-23T08:40:21;10.10;46.00
81842;DHT22;71284;50.918;7.092;2024-02-23T08:42:48;10.30;45.80
81842;DHT22;71284;50.918;7.092;2024-02-23T08:45:15;10.20;46.50
81842;DHT22;71284;50.918;7.092;2024-02-23T08:47:41;10.30;45.60
81842;DHT22;71284;50.918;7.092;2024-02-23T08:50:08;10.30;45.40
81842;DHT22;71284;50.918;7.092;2024-02-23T08:52:34;10.50;44.90
81842;DHT22;71284;50.918;7.092;2024-02-23T08:55:01;10.40;45.00
81842;DHT22;71284;50.918;7.092;2024-02-23T08:57:28;10.50;44.90
81842;DHT22;71284;50.918;7.092;2024-02-23T08:59:54;10.50;44.50
81842;DHT22;71284;50.918;7.092;2024-02-23T09:02:21;10.50;45.10
81842;DHT22;71284;50.918;7.092;2024-02-23T09:04:47;10.70;44.70
81842;DHT22;71284;50.918;7.092;2024-02-23T09:07:14;10.80;44.30
81842;DHT22;71284;50.918;7.092;2024-02-23T09:09:41;10.90;43.80
81842;DHT22;71284;50.918;7.092;2024-02-23T09:12:08;10.80;43.60
81842;DHT22;71284;50.918;7.092;2024-02-23T09:14:34;10.50;43.80
81842;DHT22;71284;50.918;7.092;2024-02-23T09:17:01;10.60;44.20
81842;DHT22;71284;50.918;7.092;2024-02-23T09:19:28;10.60;44.00
81842;DHT22;71284;50.918;7.092;2024-02-23T09:21:54;10.40;44.40
81842;DHT22;71284;50.918;7.092;2024-02-23T09:24:21;10.70;44.30
81842;DHT22;71284;50.918;7.092;2024-02-23T09:26:47;10.70;44.10
81842;DHT22;71284;50.918;7.092;2024-02-23T09:29:14;10.50;43.60
81842;DHT22;71284;50.918;7.092;2024-02-23T09:31:41;10.30;44.40
81842;DHT22;71284;50.918;7.092;2024-02-23T09:34:07;10.30;45.00
81842;DHT22;71284;50.918;7.092;2024-02-23T09:36:34;10.20;44.50
81842;DHT22;71284;50.918;7.092;2024-02-23T09:39:00;10.20;44.90
81842;DHT22;71284;50.918;7.092;2024-02-23T09:41:27;10.00;45.00
81842;DHT22;71284;50.918;7.092;2024-02-23T09:43:54;10.00;45.50
81842;DHT22;71284;50.918;7.092;2024-02-23T09:46:20;10.30;45.10
81842;DHT22;71284;50.918;7.092;2024-02-23T09:48:47;10.80;45.20
81842;DHT22;71284;50.918;7.092;2024-02-23T09:51:13;10.90;42.50
81842;DHT22;71284;50.918;7.092;2024-02-23T09:53:40;10.80;43.30
81842;DHT22;71284;50.918;7.092;2024-02-23T09:56:06;11.00;42.90
81842;DHT22;71284;50.918;7.092;2024-02-23T09:58:33;11.30;43.00
81842;DHT22;71284;50.918;7.092;2024-02-23T10:01:00;11.40;42.30
81842;DHT22;71284;50.918;7.092;2024-02-23T10:03:27;11.40;42.90
81842;DHT22;71284;50.918;7.092;2024-02-23T10:05:53;11.70;42.50
81842;DHT22;71284;50.918;7.092;2024-02-23T10:08:20;11.90;41.90
81842;DHT22;71284;50.918;7.092;2024-02-23T10:10:46;12.00;40.40
81842;DHT22;71284;50.918;7.092;2024-02-23T10:13:13;11.70;40.90
81842;DHT22;71284;50.918;7.092;2024-02-23T10:15:39;11.50;41.70
81842;DHT22;71284;50.918;7.092;2024-02-23T10:18:06;11.70;42.20
81842;DHT22;71284;50.918;7.092;2024-02-23T10:20:33;11.60;41.30
81842;DHT22;71284;50.918;7.092;2024-02-23T10:22:59;11.40;41.90
81842;DHT22;71284;50.918;7.092;2024-02-23T10:25:26;11.40;42.50
81842;DHT22;71284;50.918;7.092;2024-02-23T10:27:53;11.40;42.00
81842;DHT22;71284;50.918;7.092;2024-02-23T10:30:19;11.40;41.80
81842;DHT22;71284;50.918;7.092;2024-02-23T10:32:46;11.40;42.00
81842;DHT22;71284;50.918;7.092;2024-02-23T10:35:14;11.10;42.50
81842;DHT22;71284;50.918;7.092;2024-02-23T10:37:42;11.10;42.90
81842;DHT22;71284;50.918;7.092;2024-02-23T10:40:07;11.20;43.20
81842;DHT22;71284;50.918;7.092;2024-02-23T10:42:35;11.00;43.60
81842;DHT22;71284;50.918;7.092;2024-02-23T10:45:01;11.30;43.40
81842;DHT22;71284;50.918;7.092;2024-02-23T10:47:28;11.60;43.00
81842;DHT22;71284;50.918;7.092;2024-02-23T10:49:54;11.70;41.20
81842;DHT22;71284;50.918;7.092;2024-02-23T10:52:21;12.00;40.80
81842;DHT22;71284;50.918;7.092;2024-02-23T10:54:47;12.50;40.60
81842;DHT22;71284;50.918;7.092;2024-02-23T10:57:14;12.50;39.90
81842;DHT22;71284;50.918;7.092;2024-02-23T10:59:40;12.30;40.60
81842;DHT22;71284;50.918;7.092;2024-02-23T11:02:07;12.30;40.50
81842;DHT22;71284;50.918;7.092;2024-02-23T11:04:33;12.10;40.30
81842;DHT22;71284;50.918;7.092;2024-02-23T11:07:00;12.00;40.80
81842;DHT22;71284;50.918;7.092;2024-02-23T11:09:27;12.20;40.90
81842;DHT22;71284;50.918;7.092;2024-02-23T11:11:54;12.70;40.10
81842;DHT22;71284;50.918;7.092;2024-02-23T11:14:29;12.60;39.20
81842;DHT22;71284;50.918;7.092;2024-02-23T11:16:46;12.40;39.90
81842;DHT22;71284;50.918;7.092;2024-02-23T11:19:13;12.40;40.40
81842;DHT22;71284;50.918;7.092;2024-02-23T11:21:40;12.50;39.80
81842;DHT22;71284;50.918;7.092;2024-02-23T11:24:06;12.60;39.60
81842;DHT22;71284;50.918;7.092;2024-02-23T11:26:33;12.60;39.80
81842;DHT22;71284;50.918;7.092;2024-02-23T11:29:09;12.00;41.00
81842;DHT22;71284;50.918;7.092;2024-02-23T11:31:29;11.70;42.90
81842;DHT22;71284;50.918;7.092;2024-02-23T11:33:54;11.30;44.30
81842;DHT22;71284;50.918;7.092;2024-02-23T11:36:30;11.40;44.00
81842;DHT22;71284;50.918;7.092;2024-02-23T11:38:57;11.80;44.00
81842;DHT22;71284;50.918;7.092;2024-02-23T11:41:24;11.90;43.50
81842;DHT22;71284;50.918;7.092;2024-02-23T11:43:51;11.70;43.30
81842;DHT22;71284;50.918;7.092;2024-02-23T11:46:17;11.60;43.00
81842;DHT22;71284;50.918;7.092;2024-02-23T11:48:44;11.40;42.80
81842;DHT22;71284;50.918;7.092;2024-02-23T11:51:10;11.40;43.30
81842;DHT22;71284;50.918;7.092;2024-02-23T11:53:37;11.50;43.50
81842;DHT22;71284;50.918;7.092;2024-02-23T11:56:06;11.80;42.20
81842;DHT22;71284;50.918;7.092;2024-02-23T11:58:33;11.60;42.00
81842;DHT22;71284;50.918;7.092;2024-02-23T12:00:59;11.60;43.30
81842;DHT22;71284;50.918;7.092;2024-02-23T12:03:25;11.70;41.70
81842;DHT22;71284;50.918;7.092;2024-02-23T12:05:52;11.40;41.50
81842;DHT22;71284;50.918;7.092;2024-02-23T12:08:19;11.30;42.40
81842;DHT22;71284;50.918;7.092;2024-02-23T12:10:45;11.40;42.40
81842;DHT22;71284;50.918;7.092;2024-02-23T12:13:12;11.50;42.20
81842;DHT22;71284;50.918;7.092;2024-02-23T12:15:38;11.50;42.30
81842;DHT22;71284;50.918;7.092;2024-02-23T12:18:05;11.40;43.30
81842;DHT22;71284;50.918;7.092;2024-02-23T12:20:33;11.20;42.90
81842;DHT22;71284;50.918;7.092;2024-02-23T12:23:00;11.20;42.60
81842;DHT22;71284;50.918;7.092;2024-02-23T12:25:26;11.50;43.00
81842;DHT22;71284;50.918;7.092;2024-02-23T12:27:55;11.60;42.70
81842;DHT22;71284;50.918;7.092;2024-02-23T12:30:21;11.40;42.30
81842;DHT22;71284;50.918;7.092;2024-02-23T12:32:47;11.40;42.20
81842;DHT22;71284;50.918;7.092;2024-02-23T12:35:14;11.50;42.20
81842;DHT22;71284;50.918;7.092;2024-02-23T12:37:41;11.60;42.10
81842;DHT22;71284;50.918;7.092;2024-02-23T12:40:08;11.40;42.20
81842;DHT22;71284;50.918;7.092;2024-02-23T12:42:35;11.50;42.80
81842;DHT22;71284;50.918;7.092;2024-02-23T12:45:01;11.70;42.40
81842;DHT22;71284;50.918;7.092;2024-02-23T12:47:28;11.70;41.70
81842;DHT22;71284;50.918;7.092;2024-02-23T12:49:54;11.70;41.90
81842;DHT22;71284;50.918;7.092;2024-02-23T12:52:21;11.70;41.70
81842;DHT22;71284;50.918;7.092;2024-02-23T12:54:48;11.70;42.20
81842;DHT22;71284;50.918;7.092;2024-02-23T12:57:14;11.90;42.10
81842;DHT22;71284;50.918;7.092;2024-02-23T12:59:41;11.90;42.40
81842;DHT22;71284;50.918;7.092;2024-02-23T13:02:07;12.00;41.80
81842;DHT22;71284;50.918;7.092;2024-02-23T13:04:34;12.10;42.50
81842;DHT22;71284;50.918;7.092;2024-02-23T13:07:01;12.40;41.20
81842;DHT22;71284;50.918;7.092;2024-02-23T13:09:27;12.30;41.50
81842;DHT22;71284;50.918;7.092;2024-02-23T13:11:54;12.40;40.60
81842;DHT22;71284;50.918;7.092;2024-02-23T13:14:20;12.30;41.60
81842;DHT22;71284;50.918;7.092;2024-02-23T13:16:47;12.50;42.50
81842;DHT22;71284;50.918;7.092;2024-02-23T13:19:14;12.60;42.70
81842;DHT22;71284;50.918;7.092;2024-02-23T13:21:40;12.50;42.50
81842;DHT22;71284;50.918;7.092;2024-02-23T13:24:07;12.20;42.20
81842;DHT22;71284;50.918;7.092;2024-02-23T13:26:33;12.10;42.60
81842;DHT22;71284;50.918;7.092;2024-02-23T13:29:00;12.10;43.00
81842;DHT22;71284;50.918;7.092;2024-02-23T13:31:27;12.40;42.20
81842;DHT22;71284;50.918;7.092;2024-02-23T13:33:53;12.50;42.30
81842;DHT22;71284;50.918;7.092;2024-02-23T13:36:20;12.80;41.60
81842;DHT22;71284;50.918;7.092;2024-02-23T13:38:46;13.00;41.50
81842;DHT22;71284;50.918;7.092;2024-02-23T13:41:13;13.20;41.10
81842;DHT22;71284;50.918;7.092;2024-02-23T13:43:39;13.10;41.20
81842;DHT22;71284;50.918;7.092;2024-02-23T13:46:06;12.90;40.60
81842;DHT22;71284;50.918;7.092;2024-02-23T13:48:33;13.00;41.50
81842;DHT22;71284;50.918;7.092;2024-02-23T13:50:59;12.90;42.20
81842;DHT22;71284;50.918;7.092;2024-02-23T13:53:26;12.90;43.30
81842;DHT22;71284;50.918;7.092;2024-02-23T13:55:52;12.90;43.10
81842;DHT22;71284;50.918;7.092;2024-02-23T13:58:19;12.80;44.90
81842;DHT22;71284;50.918;7.092;2024-02-23T14:00:46;12.80;44.20
81842;DHT22;71284;50.918;7.092;2024-02-23T14:03:17;13.00;43.20
81842;DHT22;71284;50.918;7.092;2024-02-23T14:05:40;12.90;42.30
81842;DHT22;71284;50.918;7.092;2024-02-23T14:08:06;13.00;41.10
81842;DHT22;71284;50.918;7.092;2024-02-23T14:10:33;12.90;39.80
81842;DHT22;71284;50.918;7.092;2024-02-23T14:12:59;12.80;40.40
81842;DHT22;71284;50.918;7.092;2024-02-23T14:15:26;12.40;42.20
81842;DHT22;71284;50.918;7.092;2024-02-23T14:17:53;12.40;42.30
81842;DHT22;71284;50.918;7.092;2024-02-23T14:20:19;12.30;42.60
81842;DHT22;71284;50.918;7.092;2024-02-23T14:22:46;12.30;42.90
81842;DHT22;71284;50.918;7.092;2024-02-23T14:25:12;12.60;42.40
81842;DHT22;71284;50.918;7.092;2024-02-23T14:27:39;12.70;42.10
81842;DHT22;71284;50.918;7.092;2024-02-23T14:30:07;12.80;41.70
81842;DHT22;71284;50.918;7.092;2024-02-23T14:32:33;12.70;41.50
81842;DHT22;71284;50.918;7.092;2024-02-23T14:35:01;13.00;40.30
81842;DHT22;71284;50.918;7.092;2024-02-23T14:37:26;13.10;39.70
81842;DHT22;71284;50.918;7.092;2024-02-23T14:39:53;13.10;40.00
81842;DHT22;71284;50.918;7.092;2024-02-23T14:42:20;13.10;40.30
81842;DHT22;71284;50.918;7.092;2024-02-23T14:44:46;13.30;40.20
81842;DHT22;71284;50.918;7.092;2024-02-23T14:47:13;13.30;39.80
81842;DHT22;71284;50.918;7.092;2024-02-23T14:49:39;12.80;40.20
81842;DHT22;71284;50.918;7.092;2024-02-23T14:52:06;12.60;40.90
81842;DHT22;71284;50.918;7.092;2024-02-23T14:54:33;12.30;41.00
81842;DHT22;71284;50.918;7.092;2024-02-23T14:56:59;12.20;41.10
81842;DHT22;71284;50.918;7.092;2024-02-23T14:59:26;12.20;41.40
81842;DHT22;71284;50.918;7.092;2024-02-23T15:01:52;12.10;41.40
81842;DHT22;71284;50.918;7.092;2024-02-23T15:04:19;11.90;42.20
81842;DHT22;71284;50.918;7.092;2024-02-23T15:06:45;11.80;42.60
81842;DHT22;71284;50.918;7.092;2024-02-23T15:09:12;11.80;42.70
81842;DHT22;71284;50.918;7.092;2024-02-23T15:11:39;11.80;42.40
81842;DHT22;71284;50.918;7.092;2024-02-23T15:14:05;11.70;42.70
81842;DHT22;71284;50.918;7.092;2024-02-23T15:16:32;11.80;42.90
81842;DHT22;71284;50.918;7.092;2024-02-23T15:18:58;11.90;42.50
81842;DHT22;71284;50.918;7.092;2024-02-23T15:21:25;12.20;42.40
81842;DHT22;71284;50.918;7.092;2024-02-23T15:23:52;12.30;42.10
81842;DHT22;71284;50.918;7.092;2024-02-23T15:26:18;12.30;41.90
81842;DHT22;71284;50.918;7.092;2024-02-23T15:28:45;12.20;41.70
81842;DHT22;71284;50.918;7.092;2024-02-23T15:31:11;12.00;43.00
81842;DHT22;71284;50.918;7.092;2024-02-23T15:33:38;12.00;42.60
81842;DHT22;71284;50.918;7.092;2024-02-23T15:36:05;12.10;42.50